Time;durP1;ratioP1;P1;durP2;ratioP2;P2;SDS_P1;SDS_P2;PMS_P1;PMS_P2;Temp;Humidity;BMP_temperature;BMP_pressure;BME280_temperature;BME280_humidity;BME280_pressure;Samples;Min_cycle;Max_cycle;Signal;HPM_P1;HPM_P2
2024/04/16 00:00:53;;;;;;;2.20;2.00;;;9.20;99.90;;;;;;5491818;26;20796;-67
2024/04/16 00:03:18;;;;;;;2.23;1.97;;;9.10;99.90;;;;;;5491956;26;20498;-67
2024/04/16 00:05:46;;;;;;;2.13;2.03;;;9.00;99.90;;;;;;5491695;26;20513;-67
2024/04/16 00:08:12;;;;;;;1.73;1.57;;;9.00;99.90;;;;;;5491705;26;20673;-67
2024/04/16 00:10:40;;;;;;;2.60;2.40;;;9.00;99.90;;;;;;5491629;26;20499;-67
2024/04/16 00:13:08;;;;;;;3.10;2.10;;;8.80;99.90;;;;;;5491600;26;20214;-67
2024/04/16 00:15:36;;;;;;;3.00;2.80;;;8.90;99.90;;;;;;5491648;26;20503;-67
2024/04/16 00:18:02;;;;;;;3.07;2.77;;;8.80;99.90;;;;;;5491446;26;20422;-67
2024/04/16 00:20:30;;;;;;;2.37;1.90;;;8.80;99.90;;;;;;5491796;26;20471;-67
2024/04/16 00:22:56;;;;;;;3.03;2.83;;;8.90;99.90;;;;;;5491523;26;20458;-67
2024/04/16 00:25:24;;;;;;;4.23;2.37;;;8.90;99.90;;;;;;5491520;26;20431;-67
2024/04/16 00:27:50;;;;;;;3.03;2.83;;;8.80;99.90;;;;;;5491502;26;20233;-67
2024/04/16 00:30:21;;;;;;;2.90;2.60;;;8.90;99.90;;;;;;5491470;26;20954;-67
2024/04/16 00:32:47;;;;;;;6.67;2.77;;;8.90;99.90;;;;;;5491539;26;20210;-67
2024/04/16 00:35:15;;;;;;;4.80;2.53;;;9.00;99.90;;;;;;5491276;26;20510;-67
2024/04/16 00:37:40;;;;;;;3.27;2.97;;;8.90;99.90;;;;;;5491314;26;20214;-67
2024/04/16 00:40:09;;;;;;;3.10;2.80;;;8.90;99.90;;;;;;5491185;26;20451;-67
2024/04/16 00:42:35;;;;;;;2.73;2.50;;;9.00;99.90;;;;;;5491249;26;20249;-67
2024/04/16 00:45:04;;;;;;;3.40;3.10;;;8.90;99.90;;;;;;5490846;26;20935;-67
2024/04/16 00:47:32;;;;;;;4.43;3.27;;;8.80;99.90;;;;;;5491119;26;20252;-67
2024/04/16 00:50:01;;;;;;;8.30;3.90;;;8.80;99.90;;;;;;5491112;26;20496;-67
2024/04/16 00:52:26;;;;;;;3.30;3.10;;;8.80;99.90;;;;;;5491061;26;20499;-67
2024/04/16 00:54:55;;;;;;;6.80;3.93;;;8.90;99.90;;;;;;5491014;26;20989;-67
2024/04/16 00:57:20;;;;;;;6.93;2.97;;;8.80;99.90;;;;;;5491101;26;20214;-67
2024/04/16 00:59:50;;;;;;;3.70;3.10;;;8.80;99.90;;;;;;5490827;26;20455;-67
2024/04/16 01:02:15;;;;;;;4.00;2.90;;;8.80;99.90;;;;;;5490964;26;20218;-67
2024/04/16 01:04:46;;;;;;;3.87;3.57;;;8.80;99.90;;;;;;5491043;26;20501;-67
2024/04/16 01:07:12;;;;;;;3.50;3.13;;;8.90;99.90;;;;;;5490881;26;20206;-67
2024/04/16 01:09:40;;;;;;;8.23;4.30;;;8.80;99.90;;;;;;5490805;26;20982;-67
2024/04/16 01:12:06;;;;;;;5.00;3.20;;;8.90;99.90;;;;;;5490762;26;20221;-67
2024/04/16 01:14:34;;;;;;;3.97;3.67;;;8.90;99.90;;;;;;5490757;26;20447;-67
2024/04/16 01:16:59;;;;;;;3.67;3.10;;;9.00;99.90;;;;;;5490715;26;20499;-67
2024/04/16 01:19:28;;;;;;;4.37;3.40;;;9.00;99.90;;;;;;5490605;26;20434;-67
2024/04/16 01:21:56;;;;;;;7.53;3.50;;;9.10;99.90;;;;;;5490596;26;20217;-67
2024/04/16 01:24:27;;;;;;;3.07;2.80;;;9.00;99.90;;;;;;5490620;26;20538;-67
2024/04/16 01:26:52;;;;;;;3.07;2.87;;;9.00;99.90;;;;;;5490561;26;20463;-67
2024/04/16 01:29:20;;;;;;;7.63;2.70;;;8.90;99.90;;;;;;5490581;26;20454;-67
2024/04/16 01:31:46;;;;;;;3.00;2.73;;;8.90;99.90;;;;;;5490555;26;20213;-67
2024/04/16 01:34:14;;;;;;;3.47;3.20;;;8.90;99.90;;;;;;5490590;26;20502;-67
2024/04/16 01:36:40;;;;;;;3.27;2.97;;;8.90;99.90;;;;;;5490496;26;20209;-67
2024/04/16 01:39:08;;;;;;;4.13;3.07;;;8.90;99.90;;;;;;5490279;26;20599;-67
2024/04/16 01:41:36;;;;;;;4.60;3.30;;;8.80;99.90;;;;;;5490357;26;20415;-67
2024/04/16 01:44:05;;;;;;;2.70;2.50;;;8.90;99.90;;;;;;5490316;26;20572;-67
2024/04/16 01:46:30;;;;;;;4.40;2.90;;;8.80;99.90;;;;;;5490289;26;20415;-67
2024/04/16 01:48:58;;;;;;;3.80;2.80;;;8.70;99.90;;;;;;5490352;26;20978;-67
2024/04/16 01:51:24;;;;;;;2.87;2.57;;;8.60;99.90;;;;;;5490245;26;20268;-67
2024/04/16 01:53:52;;;;;;;4.03;3.33;;;8.60;99.90;;;;;;5490172;26;20459;-67
2024/04/16 01:56:18;;;;;;;3.70;2.73;;;8.60;99.90;;;;;;5489076;26;20222;-67
2024/04/16 01:58:48;;;;;;;2.53;2.33;;;8.70;99.90;;;;;;5490239;26;20515;-67
2024/04/16 02:01:14;;;;;;;4.47;2.50;;;8.70;99.90;;;;;;5490036;26;20214;-67
2024/04/16 02:03:42;;;;;;;3.33;2.63;;;8.70;99.90;;;;;;5490070;26;20942;-67
2024/04/16 02:06:08;;;;;;;4.60;2.43;;;8.80;99.90;;;;;;5490015;26;20257;-67
2024/04/16 02:08:36;;;;;;;4.47;2.53;;;8.80;99.90;;;;;;5489821;26;20462;-67
2024/04/16 02:11:02;;;;;;;6.33;2.40;;;8.80;99.90;;;;;;5489920;26;20210;-67
2024/04/16 02:13:30;;;;;;;4.63;2.50;;;8.80;99.90;;;;;;5489935;26;20447;-67
2024/04/16 02:15:58;;;;;;;5.40;2.70;;;8.80;99.90;;;;;;5489853;26;20415;-67
2024/04/16 02:18:26;;;;;;;4.77;2.87;;;8.80;99.90;;;;;;5489711;26;20439;-67
2024/04/16 02:20:52;;;;;;;4.60;2.70;;;8.80;99.90;;;;;;5489671;26;20487;-67
2024/04/16 02:23:20;;;;;;;2.40;2.27;;;8.80;99.90;;;;;;5489834;26;20463;-67
2024/04/16 02:25:46;;;;;;;2.33;2.13;;;8.80;99.90;;;;;;5489695;26;20210;-67
2024/04/16 02:28:14;;;;;;;2.77;2.27;;;8.70;99.90;;;;;;5489653;26;20512;-67
2024/04/16 02:30:41;;;;;;;2.60;2.40;;;8.70;99.90;;;;;;5489607;26;20423;-67
2024/04/16 02:33:12;;;;;;;3.73;2.43;;;8.60;99.90;;;;;;5489673;26;20757;-67
2024/04/16 02:35:38;;;;;;;2.27;2.07;;;8.60;99.90;;;;;;5489541;26;20447;-67
2024/04/16 02:38:06;;;;;;;2.20;2.00;;;8.60;99.90;;;;;;5489722;26;20478;-67
2024/04/16 02:40:31;;;;;;;3.27;2.33;;;8.70;99.90;;;;;;5489389;26;20268;-67
2024/04/16 02:43:00;;;;;;;2.60;2.40;;;8.70;99.90;;;;;;5489571;26;20934;-67
2024/04/16 02:45:27;;;;;;;5.73;2.70;;;8.80;99.90;;;;;;5489345;26;20217;-67
2024/04/16 02:47:55;;;;;;;2.33;2.13;;;8.80;99.90;;;;;;5489290;26;20525;-67
2024/04/16 02:50:23;;;;;;;2.27;1.90;;;8.80;99.90;;;;;;5489144;26;20439;-67
2024/04/16 02:52:51;;;;;;;1.90;1.70;;;8.70;99.90;;;;;;5489475;26;21041;-67
2024/04/16 02:55:20;;;;;;;4.83;2.60;;;8.50;99.90;;;;;;5489064;26;20471;-67
2024/04/16 02:57:49;;;;;;;2.03;1.93;;;8.50;99.90;;;;;;5489148;26;20415;-67
2024/04/16 03:00:14;;;;;;;3.33;2.40;;;8.60;99.90;;;;;;5489137;26;20461;-67
2024/04/16 03:02:42;;;;;;;2.53;2.03;;;8.60;99.90;;;;;;5488978;26;20455;-67
2024/04/16 03:05:08;;;;;;;2.97;2.03;;;8.40;99.90;;;;;;5489124;26;20588;-66
2024/04/16 03:07:39;;;;;;;2.93;1.80;;;8.40;99.90;;;;;;5491773;26;20502;-67
2024/04/16 03:10:05;;;;;;;2.47;2.00;;;8.40;99.90;;;;;;5492481;26;20288;-67
2024/04/16 03:12:34;;;;;;;3.97;1.80;;;8.40;99.90;;;;;;5492524;26;20808;-67
2024/04/16 03:14:59;;;;;;;2.10;2.00;;;8.40;99.90;;;;;;5492419;26;20438;-67
2024/04/16 03:17:27;;;;;;;1.83;1.73;;;8.20;99.90;;;;;;5492302;26;21017;-67
2024/04/16 03:19:53;;;;;;;2.70;1.93;;;8.20;99.90;;;;;;5492239;26;20527;-67
2024/04/16 03:22:21;;;;;;;2.00;1.73;;;8.20;99.90;;;;;;5492455;26;20482;-67
2024/04/16 03:24:50;;;;;;;2.00;1.77;;;8.10;99.90;;;;;;5492337;26;20249;-67
2024/04/16 03:27:18;;;;;;;2.10;1.90;;;8.00;99.90;;;;;;5492333;26;20431;-67
2024/04/16 03:29:44;;;;;;;5.67;2.27;;;8.00;99.90;;;;;;5492721;26;20961;-67
2024/04/16 03:32:12;;;;;;;4.07;2.00;;;8.00;99.90;;;;;;5492318;26;20506;-67
2024/04/16 03:34:38;;;;;;;2.90;2.00;;;8.00;99.90;;;;;;5492173;26;20210;-67
2024/04/16 03:37:06;;;;;;;2.97;1.60;;;7.80;99.90;;;;;;5492326;26;20455;-67
2024/04/16 03:39:34;;;;;;;1.80;1.70;;;7.70;99.90;;;;;;5492104;26;20583;-67
2024/04/16 03:42:05;;;;;;;2.50;1.87;;;7.80;99.90;;;;;;5492144;26;20419;-67
2024/04/16 03:44:33;;;;;;;2.43;1.60;;;7.80;99.90;;;;;;5492219;26;20483;-67
2024/04/16 03:46:59;;;;;;;2.17;1.70;;;7.80;99.90;;;;;;5491988;26;21029;-67
2024/04/16 03:49:27;;;;;;;3.83;2.00;;;7.90;99.90;;;;;;5491952;26;20423;-67
2024/04/16 03:51:53;;;;;;;3.13;1.83;;;7.90;99.90;;;;;;5491977;26;20685;-66
2024/04/16 03:54:21;;;;;;;2.30;2.10;;;8.00;99.90;;;;;;5491692;26;20511;-67
2024/04/16 03:56:46;;;;;;;2.80;1.87;;;8.00;99.90;;;;;;5491821;26;20237;-67
2024/04/16 03:59:37;;;;;;;5.00;1.90;;;8.00;99.90;;;;;;5492045;26;20458;-67
2024/04/16 04:02:03;;;;;;;2.13;1.90;;;8.00;99.90;;;;;;5491867;26;20206;-67
2024/04/16 04:04:31;;;;;;;1.90;1.73;;;7.90;99.90;;;;;;5491767;26;20446;-67
2024/04/16 04:06:57;;;;;;;3.30;2.07;;;7.90;99.90;;;;;;5492233;26;20450;-67
2024/04/16 04:09:25;;;;;;;2.43;2.23;;;7.80;99.90;;;;;;5491635;26;20962;-67
2024/04/16 04:11:50;;;;;;;2.60;2.40;;;7.80;99.90;;;;;;5491633;26;20327;-67
2024/04/16 04:14:21;;;;;;;4.20;2.50;;;8.00;99.90;;;;;;5491695;26;20790;-67
2024/04/16 04:16:47;;;;;;;2.43;2.13;;;7.90;99.90;;;;;;5491585;26;20685;-67
2024/04/16 04:19:15;;;;;;;3.93;2.20;;;8.00;99.90;;;;;;5490690;26;20482;-67
2024/04/16 04:21:40;;;;;;;3.60;2.40;;;8.00;99.90;;;;;;5491315;26;20210;-67
2024/04/16 04:24:08;;;;;;;2.90;2.50;;;8.00;99.90;;;;;;5491849;26;20528;-67
2024/04/16 04:26:34;;;;;;;3.33;3.13;;;8.00;99.90;;;;;;5491340;26;20571;-67
2024/04/16 04:29:02;;;;;;;3.40;2.90;;;8.00;99.90;;;;;;5491328;26;20522;-67
2024/04/16 04:31:30;;;;;;;2.37;2.17;;;8.00;99.90;;;;;;5491163;26;20218;-67
2024/04/16 04:33:58;;;;;;;7.73;2.20;;;8.00;99.90;;;;;;5491333;26;20989;-66
2024/04/16 04:36:24;;;;;;;2.90;2.67;;;8.00;99.90;;;;;;5491133;26;20423;-67
2024/04/16 04:38:52;;;;;;;3.97;2.20;;;7.90;99.90;;;;;;5491100;26;20463;-67
2024/04/16 04:41:18;;;;;;;2.00;1.90;;;7.90;99.90;;;;;;5491134;26;20210;-67
2024/04/16 04:43:50;;;;;;;2.50;2.30;;;7.90;99.90;;;;;;5490943;26;20811;-67
2024/04/16 04:46:16;;;;;;;2.63;2.43;;;8.00;99.90;;;;;;5491053;26;20800;-67
2024/04/16 04:48:46;;;;;;;4.60;2.20;;;8.10;99.90;;;;;;5491476;26;20443;-67
2024/04/16 04:51:13;;;;;;;2.40;2.20;;;8.00;99.90;;;;;;5490951;26;20241;-67
2024/04/16 04:53:41;;;;;;;2.23;2.03;;;8.00;99.90;;;;;;5490941;26;20451;-66
2024/04/16 04:56:07;;;;;;;2.80;2.60;;;8.10;99.90;;;;;;5490946;26;20458;-67
2024/04/16 04:58:35;;;;;;;8.10;3.27;;;8.10;99.90;;;;;;5491213;26;20469;-67
2024/04/16 05:01:01;;;;;;;3.07;2.27;;;8.10;99.90;;;;;;5490986;26;20206;-67
2024/04/16 05:03:30;;;;;;;1.93;1.83;;;8.10;99.90;;;;;;5490892;26;20462;-67
2024/04/16 05:05:58;;;;;;;3.70;3.07;;;8.20;99.90;;;;;;5490928;26;20795;-67
2024/04/16 05:08:28;;;;;;;2.83;2.23;;;8.20;99.90;;;;;;5490964;26;20518;-67
2024/04/16 05:10:54;;;;;;;2.20;2.00;;;8.40;99.90;;;;;;5490573;26;20447;-67
2024/04/16 05:13:22;;;;;;;2.33;2.13;;;8.60;99.90;;;;;;5490794;26;20575;-67
2024/04/16 05:15:47;;;;;;;3.80;1.93;;;8.80;99.90;;;;;;5490747;26;20210;-67
2024/04/16 05:18:16;;;;;;;5.00;2.57;;;8.80;99.90;;;;;;5490531;26;20439;-67
2024/04/16 05:20:46;;;;;;;3.77;2.00;;;8.80;99.90;;;;;;5490358;26;20737;-67
2024/04/16 05:23:18;;;;;;;3.60;3.00;;;8.80;99.90;;;;;;5490598;26;20455;-67
2024/04/16 05:25:51;;;;;;;2.97;2.67;;;8.70;99.90;;;;;;5490549;26;20502;-67
2024/04/16 05:28:20;;;;;;;2.50;2.30;;;8.60;99.90;;;;;;5490312;26;20478;-67
2024/04/16 05:30:46;;;;;;;3.20;2.90;;;8.40;99.90;;;;;;5488835;26;20439;-67
2024/04/16 05:33:14;;;;;;;2.70;2.37;;;8.50;99.90;;;;;;5490579;26;20572;-66
2024/04/16 05:35:40;;;;;;;4.10;2.30;;;8.40;99.90;;;;;;5490193;26;20222;-67
2024/04/16 05:38:08;;;;;;;5.53;2.13;;;8.40;99.90;;;;;;5490318;26;20498;-67
2024/04/16 05:40:36;;;;;;;5.93;2.60;;;8.60;99.90;;;;;;5490255;26;20546;-67
2024/04/16 05:43:04;;;;;;;2.97;2.70;;;8.80;99.90;;;;;;5490044;26;20503;-67
2024/04/16 05:45:30;;;;;;;3.30;2.90;;;8.90;99.90;;;;;;5490211;26;20482;-67
2024/04/16 05:47:58;;;;;;;2.37;2.27;;;8.90;99.90;;;;;;5490001;26;20828;-67
2024/04/16 05:50:24;;;;;;;3.60;2.83;;;8.80;99.90;;;;;;5489920;26;20249;-67
2024/04/16 05:52:52;;;;;;;4.07;3.03;;;8.80;99.90;;;;;;5489896;26;20451;-67
2024/04/16 05:55:18;;;;;;;2.70;2.50;;;9.00;99.90;;;;;;5490006;26;20328;-67
2024/04/16 05:57:49;;;;;;;4.37;2.20;;;9.10;99.90;;;;;;5489931;26;20451;-67
2024/04/16 06:00:14;;;;;;;3.27;2.23;;;9.10;99.90;;;;;;5489808;26;20419;-67
2024/04/16 06:02:42;;;;;;;2.53;2.37;;;9.10;99.90;;;;;;5489949;26;20451;-67
2024/04/16 06:05:08;;;;;;;2.90;2.47;;;9.20;99.90;;;;;;5489752;26;20689;-67
2024/04/16 06:07:36;;;;;;;3.80;2.60;;;9.40;99.90;;;;;;5489732;26;20503;-67
2024/04/16 06:10:02;;;;;;;4.00;3.00;;;9.40;99.90;;;;;;5489770;26;20229;-67
2024/04/16 06:12:30;;;;;;;4.13;2.57;;;9.30;99.90;;;;;;5489618;26;20458;-67
2024/04/16 06:14:59;;;;;;;7.47;4.03;;;9.40;99.90;;;;;;5489694;26;20612;-67
2024/04/16 06:17:27;;;;;;;3.37;2.83;;;9.10;99.90;;;;;;5489733;26;20447;-67
2024/04/16 06:19:52;;;;;;;3.57;3.13;;;9.10;99.90;;;;;;5489654;26;20443;-66
2024/04/16 06:22:21;;;;;;;2.87;2.67;;;9.00;99.90;;;;;;5489642;26;20494;-66
2024/04/16 06:24:46;;;;;;;4.17;2.70;;;9.10;99.90;;;;;;5489494;26;20253;-67
2024/04/16 06:27:14;;;;;;;3.53;3.00;;;9.30;99.90;;;;;;5489630;26;20455;-67
2024/04/16 06:29:40;;;;;;;2.57;2.43;;;9.40;99.90;;;;;;5489959;26;20732;-68
2024/04/16 06:32:12;;;;;;;2.70;2.50;;;9.60;99.90;;;;;;5489402;26;20434;-67
2024/04/16 06:34:37;;;;;;;5.73;3.10;;;9.70;99.90;;;;;;5489508;26;20306;-67
2024/04/16 06:37:06;;;;;;;4.53;3.10;;;9.70;99.90;;;;;;5489296;26;20451;-67
2024/04/16 06:39:31;;;;;;;3.63;3.10;;;9.80;99.90;;;;;;5489865;26;20237;-67
2024/04/16 06:42:02;;;;;;;2.80;2.60;;;9.70;99.90;;;;;;5488847;26;20459;-67
2024/04/16 06:44:27;;;;;;;7.00;2.77;;;9.60;99.90;;;;;;5489084;26;20300;-67
2024/04/16 06:46:55;;;;;;;4.33;2.70;;;9.40;99.90;;;;;;5489174;26;20450;-67
2024/04/16 06:49:23;;;;;;;4.43;2.67;;;9.50;99.90;;;;;;5489140;26;20221;-67
2024/04/16 06:51:51;;;;;;;4.00;2.80;;;9.60;99.90;;;;;;5489028;26;20451;-67
2024/04/16 06:54:17;;;;;;;3.13;2.60;;;9.40;99.90;;;;;;5488676;26;20435;-67
2024/04/16 06:56:45;;;;;;;7.23;3.70;;;9.30;99.90;;;;;;5489188;26;20467;-67
2024/04/16 06:59:14;;;;;;;4.17;3.10;;;9.30;99.90;;;;;;5488879;26;20213;-67
2024/04/16 07:01:42;;;;;;;4.07;2.83;;;9.30;99.90;;;;;;5488972;26;20491;-67
2024/04/16 07:04:10;;;;;;;4.13;2.90;;;9.40;99.90;;;;;;5488752;26;20500;-67
2024/04/16 07:06:41;;;;;;;4.10;3.13;;;9.50;99.90;;;;;;5488564;26;20478;-67
2024/04/16 07:09:07;;;;;;;3.63;3.07;;;9.50;99.90;;;;;;5488679;26;20537;-67
2024/04/16 07:11:35;;;;;;;4.10;3.20;;;9.50;99.90;;;;;;5488587;26;20506;-67
2024/04/16 07:14:03;;;;;;;7.07;3.40;;;9.40;99.90;;;;;;5488721;26;20209;-67
2024/04/16 07:16:29;;;;;;;5.47;2.90;;;9.40;99.90;;;;;;5488480;26;20514;-66
2024/04/16 07:18:57;;;;;;;4.17;2.83;;;9.40;99.90;;;;;;5487306;26;20529;-66
2024/04/16 07:21:23;;;;;;;4.30;2.73;;;9.30;99.90;;;;;;5485294;26;20511;-67
2024/04/16 07:23:54;;;;;;;4.13;2.77;;;9.30;99.90;;;;;;5487477;26;20470;-67
2024/04/16 07:26:19;;;;;;;5.63;3.30;;;9.30;99.90;;;;;;5487249;26;20362;-67
2024/04/16 07:28:47;;;;;;;6.07;4.03;;;9.20;99.90;;;;;;5488022;26;20260;-67
2024/04/16 07:31:13;;;;;;;7.60;3.53;;;9.30;99.90;;;;;;5488491;26;20218;-67
2024/04/16 07:33:41;;;;;;;3.10;2.57;;;9.40;99.90;;;;;;5488329;26;20492;-67
2024/04/16 07:36:08;;;;;;;3.27;2.87;;;9.30;99.90;;;;;;5488285;26;20222;-68
2024/04/16 07:38:37;;;;;;;4.40;2.53;;;9.30;99.90;;;;;;5488167;26;20443;-67
2024/04/16 07:41:05;;;;;;;4.73;2.80;;;9.30;99.90;;;;;;5488224;26;20483;-67
2024/04/16 07:43:34;;;;;;;3.07;2.23;;;9.30;99.90;;;;;;5488196;26;20458;-67
2024/04/16 07:45:59;;;;;;;4.33;3.20;;;9.30;99.90;;;;;;5488113;26;20550;-66
2024/04/16 07:48:27;;;;;;;3.00;2.60;;;9.40;99.90;;;;;;5488353;26;20487;-66
2024/04/16 07:50:53;;;;;;;3.30;2.30;;;9.30;99.90;;;;;;5488135;26;20527;-66
2024/04/16 07:53:21;;;;;;;4.80;2.57;;;9.30;99.90;;;;;;5488772;26;20480;-67
2024/04/16 07:55:47;;;;;;;4.80;2.47;;;9.40;99.90;;;;;;5491352;26;20759;-66
2024/04/16 07:58:17;;;;;;;4.70;3.40;;;9.30;99.90;;;;;;5491597;26;20466;-67
2024/04/16 08:00:43;;;;;;;9.13;2.73;;;9.30;99.90;;;;;;5491783;26;20241;-66
2024/04/16 08:03:11;;;;;;;6.40;2.80;;;9.20;99.90;;;;;;5491774;26;20494;-67
2024/04/16 08:05:37;;;;;;;3.70;2.23;;;9.30;99.90;;;;;;5491450;26;20222;-67
2024/04/16 08:08:05;;;;;;;7.37;3.30;;;9.20;99.90;;;;;;5491764;26;20536;-67
2024/04/16 08:10:31;;;;;;;3.93;2.43;;;9.20;99.90;;;;;;5491559;26;20266;-66
2024/04/16 08:12:59;;;;;;;4.43;2.60;;;9.20;99.90;;;;;;5491476;26;20759;-66
2024/04/16 08:15:28;;;;;;;6.23;2.57;;;9.40;99.90;;;;;;5491583;26;20474;-67
2024/04/16 08:17:56;;;;;;;3.37;2.17;;;9.50;99.90;;;;;;5491424;26;20447;-67
2024/04/16 08:20:21;;;;;;;6.60;2.50;;;9.50;99.90;;;;;;5491385;26;20484;-66
2024/04/16 08:22:49;;;;;;;6.10;2.47;;;9.60;99.90;;;;;;5491599;26;20455;-66
2024/04/16 08:25:15;;;;;;;6.73;2.80;;;9.60;99.90;;;;;;5491493;26;20733;-66
2024/04/16 08:27:44;;;;;;;4.73;2.20;;;9.60;99.90;;;;;;5491332;26;20467;-67
2024/04/16 08:30:11;;;;;;;9.87;2.30;;;9.70;99.90;;;;;;5491094;26;20206;-67
2024/04/16 08:32:41;;;;;;;3.40;2.00;;;9.50;99.90;;;;;;5491099;26;20489;-66
2024/04/16 08:35:11;;;;;;;3.10;1.80;;;9.50;99.90;;;;;;5491185;26;20958;-67
2024/04/16 08:37:39;;;;;;;4.97;2.73;;;9.50;99.90;;;;;;5491183;26;20451;-67
2024/04/16 08:40:08;;;;;;;2.83;2.13;;;9.60;99.90;;;;;;5491079;26;20459;-67
2024/04/16 08:42:37;;;;;;;4.97;2.80;;;9.50;99.90;;;;;;5491194;26;20446;-67
2024/04/16 08:45:05;;;;;;;3.70;2.50;;;9.50;99.90;;;;;;5490419;26;20435;-67
2024/04/16 08:47:34;;;;;;;2.57;2.13;;;9.60;99.90;;;;;;5490412;26;20447;-67
2024/04/16 08:50:03;;;;;;;3.20;1.87;;;9.60;99.90;;;;;;5491099;26;20458;-67
2024/04/16 08:52:32;;;;;;;2.37;1.97;;;9.80;99.90;;;;;;5491386;26;20957;-66
2024/04/16 08:54:59;;;;;;;3.90;2.20;;;9.80;99.90;;;;;;5490767;26;20511;-67
2024/04/16 08:57:29;;;;;;;5.77;3.10;;;10.00;99.90;;;;;;5491295;26;20451;-67
2024/04/16 08:59:56;;;;;;;5.30;2.40;;;10.10;99.90;;;;;;5490803;26;20419;-67
2024/04/16 09:02:25;;;;;;;2.90;2.20;;;10.00;99.90;;;;;;5490914;26;20451;-67
2024/04/16 09:04:52;;;;;;;6.13;2.30;;;10.00;99.90;;;;;;5490531;26;20498;-67
2024/04/16 09:07:24;;;;;;;4.77;1.90;;;10.10;99.90;;;;;;5490792;26;20542;-67
2024/04/16 09:09:50;;;;;;;5.00;1.87;;;10.20;99.90;;;;;;5490829;26;20468;-67
2024/04/16 09:12:18;;;;;;;2.67;2.20;;;10.30;99.90;;;;;;5490806;26;20443;-68
2024/04/16 09:14:44;;;;;;;4.30;2.23;;;10.30;99.90;;;;;;5490940;26;20218;-68
2024/04/16 09:17:16;;;;;;;4.53;1.90;;;10.40;99.90;;;;;;5490681;26;20498;-65
2024/04/16 09:19:41;;;;;;;5.63;2.50;;;10.50;99.90;;;;;;5490502;26;20206;-66
2024/04/16 09:22:10;;;;;;;5.07;1.97;;;10.50;99.90;;;;;;5490612;26;20451;-65
2024/04/16 09:24:38;;;;;;;4.30;2.30;;;10.80;99.90;;;;;;5490425;26;20463;-65
2024/04/16 09:27:10;;;;;;;5.60;2.03;;;11.00;99.90;;;;;;5490521;26;20926;-65
2024/04/16 09:29:36;;;;;;;3.73;2.20;;;11.10;99.90;;;;;;5490586;26;20430;-65
2024/04/16 09:32:05;;;;;;;2.60;2.13;;;11.10;99.90;;;;;;5490299;26;20451;-66
2024/04/16 09:34:31;;;;;;;4.47;2.50;;;11.40;99.90;;;;;;5490234;26;20238;-65
2024/04/16 09:36:59;;;;;;;6.50;2.20;;;11.50;99.90;;;;;;5490183;26;20511;-65
2024/04/16 09:39:25;;;;;;;5.73;1.93;;;11.60;99.90;;;;;;5490024;26;20725;-65
2024/04/16 09:41:57;;;;;;;1.90;1.67;;;11.50;99.90;;;;;;5490098;26;20459;-66
2024/04/16 09:44:24;;;;;;;4.83;2.40;;;11.40;99.90;;;;;;5490239;26;20213;-65
2024/04/16 09:46:53;;;;;;;6.67;2.23;;;11.30;99.90;;;;;;5489974;26;20443;-65
2024/04/16 09:49:21;;;;;;;2.37;1.70;;;11.20;99.90;;;;;;5490243;26;20482;-65
2024/04/16 09:51:50;;;;;;;8.07;2.60;;;11.30;99.90;;;;;;5490133;26;20539;-66
2024/04/16 09:54:15;;;;;;;5.33;2.33;;;11.40;99.90;;;;;;5489979;26;20561;-65
2024/04/16 09:56:46;;;;;;;4.33;1.80;;;11.50;99.90;;;;;;5490034;26;20856;-65
2024/04/16 09:59:15;;;;;;;2.00;1.50;;;11.50;99.90;;;;;;5489831;26;20249;-65
2024/04/16 10:01:46;;;;;;;3.87;1.70;;;11.60;99.90;;;;;;5489708;26;20431;-65
2024/04/16 10:04:12;;;;;;;3.80;1.50;;;11.60;99.90;;;;;;5489966;26;20486;-65
2024/04/16 10:06:40;;;;;;;7.83;2.30;;;11.60;99.90;;;;;;5489974;26;20447;-66
2024/04/16 10:09:06;;;;;;;4.40;1.70;;;11.60;99.90;;;;;;5489926;26;20549;-66
2024/04/16 10:11:35;;;;;;;4.40;1.80;;;11.40;99.90;;;;;;5489765;26;20455;-66
2024/04/16 10:14:01;;;;;;;2.60;1.60;;;11.20;99.90;;;;;;5489732;26;20443;-66
2024/04/16 10:16:33;;;;;;;3.80;1.90;;;11.20;99.90;;;;;;5488682;26;20953;-65
2024/04/16 10:19:04;;;;;;;2.80;1.40;;;11.10;99.90;;;;;;5489703;26;20783;-65
2024/04/16 10:21:41;;;;;;;3.40;1.40;;;11.20;99.90;;;;;;5489563;26;21091;-66
2024/04/16 10:24:08;;;;;;;2.60;1.90;;;11.30;99.90;;;;;;5489580;26;20826;-66
2024/04/16 10:26:39;;;;;;;5.10;1.77;;;11.50;99.90;;;;;;5489662;26;20451;-66
2024/04/16 10:29:11;;;;;;;3.20;1.30;;;11.80;99.90;;;;;;5489492;26;20451;-65
2024/04/16 10:31:44;;;;;;;6.30;1.97;;;12.00;99.90;;;;;;5489492;26;20463;-65
2024/04/16 10:34:18;;;;;;;4.13;2.27;;;12.20;99.90;;;;;;5489610;26;20451;-65
2024/04/16 10:36:47;;;;;;;6.20;1.60;;;12.60;99.90;;;;;;5489457;26;20438;-65
2024/04/16 10:39:13;;;;;;;2.97;1.73;;;12.50;99.90;;;;;;5489469;26;20455;-66
2024/04/16 10:41:53;;;;;;;3.50;2.00;;;12.50;99.90;;;;;;5489157;26;20522;-65
2024/04/16 10:44:21;;;;;;;2.63;1.70;;;12.60;99.90;;;;;;5489203;26;20446;-65
2024/04/16 10:46:53;;;;;;;5.07;1.50;;;12.80;99.90;;;;;;5489040;26;20537;-66
2024/04/16 10:49:22;;;;;;;2.20;1.40;;;13.00;99.90;;;;;;5488231;26;20443;-66
2024/04/16 10:51:51;;;;;;;4.80;1.73;;;13.00;99.90;;;;;;5488916;26;20449;-66
2024/04/16 10:54:17;;;;;;;1.60;1.30;;;13.20;99.90;;;;;;5488818;26;20494;-66
2024/04/16 10:56:45;;;;;;;4.70;1.20;;;13.20;99.90;;;;;;5489186;26;20448;-65
2024/04/16 10:59:12;;;;;;;2.50;1.20;;;13.30;99.90;;;;;;5488898;26;20210;-66
2024/04/16 11:01:41;;;;;;;2.13;1.27;;;13.20;99.90;;;;;;5488725;26;20443;-65
2024/04/16 11:04:11;;;;;;;2.17;1.10;;;13.00;99.90;;;;;;5488874;26;20448;-64
2024/04/16 11:06:39;;;;;;;7.03;2.17;;;13.00;99.90;;;;;;5488846;26;20459;-65
2024/04/16 11:09:05;;;;;;;2.20;1.23;;;13.00;99.90;;;;;;5488880;26;20828;-65
2024/04/16 11:11:34;;;;;;;1.93;1.07;;;13.10;99.90;;;;;;5488611;26;20452;-65
2024/04/16 11:14:00;;;;;;;1.70;1.30;;;13.30;99.90;;;;;;5488675;26;20452;-65
2024/04/16 11:16:30;;;;;;;2.50;1.30;;;13.40;99.90;;;;;;5488742;26;20496;-65
2024/04/16 11:18:56;;;;;;;3.03;1.50;;;13.80;99.90;;;;;;5488779;26;20440;-65
2024/04/16 11:21:29;;;;;;;2.20;1.37;;;14.00;99.90;;;;;;5488810;26;20492;-65
2024/04/16 11:23:56;;;;;;;4.30;1.33;;;14.20;99.90;;;;;;5488617;26;20518;-66
2024/04/16 11:26:24;;;;;;;3.67;1.40;;;14.20;99.90;;;;;;5488502;26;20782;-66
2024/04/16 11:28:50;;;;;;;3.83;1.40;;;14.10;99.90;;;;;;5491269;26;21007;-66
2024/04/16 11:31:19;;;;;;;2.90;1.20;;;14.00;99.90;;;;;;5492015;26;20462;-67
2024/04/16 11:33:45;;;;;;;1.33;1.00;;;13.90;99.90;;;;;;5492087;26;20515;-66
2024/04/16 11:36:13;;;;;;;5.10;1.20;;;13.90;99.90;;;;;;5491833;26;20945;-66
2024/04/16 11:38:42;;;;;;;3.30;1.50;;;13.90;99.90;;;;;;5491976;26;20448;-67
2024/04/16 11:41:11;;;;;;;2.67;1.03;;;13.90;99.90;;;;;;5491801;26;20492;-67
2024/04/16 11:43:37;;;;;;;1.90;1.00;;;13.80;99.90;;;;;;5491850;26;20448;-67
2024/04/16 11:46:07;;;;;;;1.50;1.00;;;13.50;99.90;;;;;;5491985;26;20452;-67
2024/04/16 11:48:33;;;;;;;2.17;1.10;;;13.40;99.90;;;;;;5491898;26;20303;-67
2024/04/16 11:51:01;;;;;;;1.90;1.40;;;13.20;99.90;;;;;;5491650;26;20797;-67
2024/04/16 11:53:27;;;;;;;4.40;1.67;;;13.20;99.90;;;;;;5491595;26;20211;-67
2024/04/16 11:55:58;;;;;;;2.30;1.23;;;13.00;99.90;;;;;;5491602;26;21057;-68
2024/04/16 11:58:23;;;;;;;2.53;1.10;;;12.60;99.90;;;;;;5491635;26;20210;-67
2024/04/16 12:00:53;;;;;;;1.93;1.30;;;12.50;99.90;;;;;;5492202;26;20503;-67
2024/04/16 12:03:19;;;;;;;2.87;1.47;;;12.20;99.90;;;;;;5492071;26;20218;-67
2024/04/16 12:05:47;;;;;;;3.07;1.20;;;12.20;99.90;;;;;;5491840;26;20507;-67
2024/04/16 12:08:13;;;;;;;1.40;1.00;;;12.00;99.90;;;;;;5491619;26;20249;-67
2024/04/16 12:10:41;;;;;;;2.53;1.20;;;12.20;99.90;;;;;;5491856;26;20859;-67
2024/04/16 12:13:09;;;;;;;1.70;1.47;;;12.30;99.90;;;;;;5491583;26;20253;-67
2024/04/16 12:15:39;;;;;;;2.17;1.47;;;12.40;99.90;;;;;;5491653;26;20499;-68
2024/04/16 12:18:05;;;;;;;2.03;1.43;;;12.50;99.90;;;;;;5491391;26;20447;-67
2024/04/16 12:20:33;;;;;;;2.20;1.20;;;12.60;99.90;;;;;;5491933;26;20500;-66
2024/04/16 12:23:00;;;;;;;2.80;1.67;;;12.80;99.90;;;;;;5491321;26;20450;-67
2024/04/16 12:25:28;;;;;;;2.37;1.40;;;13.00;99.90;;;;;;5491379;26;20460;-67
2024/04/16 12:27:53;;;;;;;2.87;1.57;;;13.10;99.90;;;;;;5491246;26;20582;-66
2024/04/16 12:30:24;;;;;;;2.40;1.30;;;12.80;99.90;;;;;;5490930;26;20483;-67
2024/04/16 12:32:50;;;;;;;1.30;1.00;;;12.70;99.90;;;;;;5491276;26;20217;-67
2024/04/16 12:35:18;;;;;;;1.97;1.10;;;12.80;99.90;;;;;;5491166;26;21010;-66
2024/04/16 12:37:44;;;;;;;2.73;1.50;;;13.00;99.90;;;;;;5491162;26;20213;-66
2024/04/16 12:40:14;;;;;;;2.20;1.30;;;13.00;99.90;;;;;;5490433;26;20534;-67
2024/04/16 12:42:41;;;;;;;1.83;1.73;;;13.00;99.90;;;;;;5491100;26;20243;-65
2024/04/16 12:45:09;;;;;;;1.20;1.10;;;13.00;99.90;;;;;;5490844;26;20449;-66
2024/04/16 12:47:37;;;;;;;2.73;1.63;;;13.00;99.90;;;;;;5490944;26;20511;-65
2024/04/16 12:50:07;;;;;;;1.40;1.00;;;13.00;99.90;;;;;;5490874;26;20499;-65
2024/04/16 12:52:32;;;;;;;2.70;1.40;;;12.90;99.90;;;;;;5490865;26;20495;-66
2024/04/16 12:55:00;;;;;;;2.70;1.20;;;12.80;99.90;;;;;;5490702;26;20481;-67